sensor_id;sensor_type;location;lat;lon;timestamp;temperature;humidity
28177;DHT22;15461;41.652;9.378;2023-05-24T00:00:14;15.40;99.90
28177;DHT22;15461;41.652;9.378;2023-05-24T00:02:41;15.30;99.90
28177;DHT22;15461;41.652;9.378;2023-05-24T00:05:10;15.30;99.90
28177;DHT22;15461;41.652;9.378;2023-05-24T00:07:36;15.30;99.90
28177;DHT22;15461;41.652;9.378;2023-05-24T00:10:06;15.30;99.90
28177;DHT22;15461;41.652;9.378;2023-05-24T00:12:32;15.30;99.90
28177;DHT22;15461;41.652;9.378;2023-05-24T00:14:58;15.30;99.90
28177;DHT22;15461;41.652;9.378;2023-05-24T00:17:24;15.20;99.90
28177;DHT22;15461;41.652;9.378;2023-05-24T00:19:50;15.20;99.90
28177;DHT22;15461;41.652;9.378;2023-05-24T00:22:17;15.20;99.90
28177;DHT22;15461;41.652;9.378;2023-05-24T00:24:46;15.20;99.90
28177;DHT22;15461;41.652;9.378;2023-05-24T00:27:13;15.10;99.90
28177;DHT22;15461;41.652;9.378;2023-05-24T00:29:39;15.10;99.90
28177;DHT22;15461;41.652;9.378;2023-05-24T00:32:05;15.10;99.90
28177;DHT22;15461;41.652;9.378;2023-05-24T00:34:31;15.10;99.90
28177;DHT22;15461;41.652;9.378;2023-05-24T00:36:57;15.10;99.90
28177;DHT22;15461;41.652;9.378;2023-05-24T00:39:23;15.10;99.90
28177;DHT22;15461;41.652;9.378;2023-05-24T00:41:49;15.00;99.90
28177;DHT22;15461;41.652;9.378;2023-05-24T00:44:15;15.00;99.90
28177;DHT22;15461;41.652;9.378;2023-05-24T00:46:40;15.10;99.90
28177;DHT22;15461;41.652;9.378;2023-05-24T00:49:08;15.00;99.90
28177;DHT22;15461;41.652;9.378;2023-05-24T00:51:34;15.00;99.90
28177;DHT22;15461;41.652;9.378;2023-05-24T00:54:01;15.00;99.90
28177;DHT22;15461;41.652;9.378;2023-05-24T00:56:28;15.00;99.90
28177;DHT22;15461;41.652;9.378;2023-05-24T00:58:54;15.00;99.90
28177;DHT22;15461;41.652;9.378;2023-05-24T01:01:21;14.90;99.90
28177;DHT22;15461;41.652;9.378;2023-05-24T01:03:54;14.90;99.90
28177;DHT22;15461;41.652;9.378;2023-05-24T01:06:22;14.90;99.90
28177;DHT22;15461;41.652;9.378;2023-05-24T01:11:59;14.80;99.90
28177;DHT22;15461;41.652;9.378;2023-05-24T01:14:44;14.80;99.90
28177;DHT22;15461;41.652;9.378;2023-05-24T01:17:25;14.80;99.90
28177;DHT22;15461;41.652;9.378;2023-05-24T01:20:03;14.80;99.90
28177;DHT22;15461;41.652;9.378;2023-05-24T01:28:00;14.80;99.90
28177;DHT22;15461;41.652;9.378;2023-05-24T01:30:29;14.80;99.90
28177;DHT22;15461;41.652;9.378;2023-05-24T01:32:55;14.80;99.90
28177;DHT22;15461;41.652;9.378;2023-05-24T01:35:21;14.80;99.90
28177;DHT22;15461;41.652;9.378;2023-05-24T01:37:47;14.70;99.90
28177;DHT22;15461;41.652;9.378;2023-05-24T01:40:13;14.70;99.90
28177;DHT22;15461;41.652;9.378;2023-05-24T01:42:42;14.70;99.90
28177;DHT22;15461;41.652;9.378;2023-05-24T01:45:38;14.60;99.90
28177;DHT22;15461;41.652;9.378;2023-05-24T01:50:57;14.70;99.90
28177;DHT22;15461;41.652;9.378;2023-05-24T01:53:29;14.60;99.90
28177;DHT22;15461;41.652;9.378;2023-05-24T01:56:00;14.60;99.90
28177;DHT22;15461;41.652;9.378;2023-05-24T01:58:28;14.60;99.90
28177;DHT22;15461;41.652;9.378;2023-05-24T02:00:55;14.60;99.90
28177;DHT22;15461;41.652;9.378;2023-05-24T02:03:22;14.60;99.90
28177;DHT22;15461;41.652;9.378;2023-05-24T02:05:47;14.50;99.90
28177;DHT22;15461;41.652;9.378;2023-05-24T02:08:13;14.50;99.90
28177;DHT22;15461;41.652;9.378;2023-05-24T02:10:40;14.50;99.90
28177;DHT22;15461;41.652;9.378;2023-05-24T02:13:06;14.50;99.90
28177;DHT22;15461;41.652;9.378;2023-05-24T02:15:33;14.50;99.90
28177;DHT22;15461;41.652;9.378;2023-05-24T02:18:00;14.50;99.90
28177;DHT22;15461;41.652;9.378;2023-05-24T02:20:27;14.50;99.90
28177;DHT22;15461;41.652;9.378;2023-05-24T02:22:56;14.40;99.90
28177;DHT22;15461;41.652;9.378;2023-05-24T02:25:25;14.40;99.90
28177;DHT22;15461;41.652;9.378;2023-05-24T02:27:51;14.40;99.90
28177;DHT22;15461;41.652;9.378;2023-05-24T02:30:17;14.40;99.90
28177;DHT22;15461;41.652;9.378;2023-05-24T02:32:43;14.40;99.90
28177;DHT22;15461;41.652;9.378;2023-05-24T02:35:09;14.40;99.90
28177;DHT22;15461;41.652;9.378;2023-05-24T02:37:35;14.40;99.90
28177;DHT22;15461;41.652;9.378;2023-05-24T02:40:01;14.40;99.90
28177;DHT22;15461;41.652;9.378;2023-05-24T02:42:27;14.30;99.90
28177;DHT22;15461;41.652;9.378;2023-05-24T02:44:53;14.30;99.90
28177;DHT22;15461;41.652;9.378;2023-05-24T02:47:19;14.30;99.90
28177;DHT22;15461;41.652;9.378;2023-05-24T02:49:45;14.30;99.90
28177;DHT22;15461;41.652;9.378;2023-05-24T02:52:10;14.30;99.90
28177;DHT22;15461;41.652;9.378;2023-05-24T02:54:38;14.20;99.90
28177;DHT22;15461;41.652;9.378;2023-05-24T02:57:04;14.20;99.90
28177;DHT22;15461;41.652;9.378;2023-05-24T02:59:31;14.20;99.90
28177;DHT22;15461;41.652;9.378;2023-05-24T03:02:01;14.20;99.90
28177;DHT22;15461;41.652;9.378;2023-05-24T03:04:26;14.20;99.90
28177;DHT22;15461;41.652;9.378;2023-05-24T03:06:53;14.20;99.90
28177;DHT22;15461;41.652;9.378;2023-05-24T03:09:19;14.20;99.90
28177;DHT22;15461;41.652;9.378;2023-05-24T03:11:45;14.10;99.90
28177;DHT22;15461;41.652;9.378;2023-05-24T03:14:11;14.10;99.90
28177;DHT22;15461;41.652;9.378;2023-05-24T03:16:39;14.10;99.90
28177;DHT22;15461;41.652;9.378;2023-05-24T03:19:06;14.10;99.90
28177;DHT22;15461;41.652;9.378;2023-05-24T03:21:32;14.10;99.90
28177;DHT22;15461;41.652;9.378;2023-05-24T03:23:57;14.10;99.90
28177;DHT22;15461;41.652;9.378;2023-05-24T03:26:23;14.10;99.90
28177;DHT22;15461;41.652;9.378;2023-05-24T03:28:51;14.10;99.90
28177;DHT22;15461;41.652;9.378;2023-05-24T03:31:22;14.10;99.90
28177;DHT22;15461;41.652;9.378;2023-05-24T03:33:51;14.10;99.90
28177;DHT22;15461;41.652;9.378;2023-05-24T03:36:17;14.10;99.90
28177;DHT22;15461;41.652;9.378;2023-05-24T03:38:45;14.10;99.90
28177;DHT22;15461;41.652;9.378;2023-05-24T03:41:11;14.10;99.90
28177;DHT22;15461;41.652;9.378;2023-05-24T03:43:37;14.10;99.90
28177;DHT22;15461;41.652;9.378;2023-05-24T03:46:06;14.10;99.90
28177;DHT22;15461;41.652;9.378;2023-05-24T03:48:32;14.10;99.90
28177;DHT22;15461;41.652;9.378;2023-05-24T03:50:58;14.10;99.90
28177;DHT22;15461;41.652;9.378;2023-05-24T03:53:24;14.10;99.90
28177;DHT22;15461;41.652;9.378;2023-05-24T03:55:50;14.10;99.90
28177;DHT22;15461;41.652;9.378;2023-05-24T03:58:16;14.10;99.90
28177;DHT22;15461;41.652;9.378;2023-05-24T04:00:43;14.10;99.90
28177;DHT22;15461;41.652;9.378;2023-05-24T04:03:09;14.10;99.90
28177;DHT22;15461;41.652;9.378;2023-05-24T04:05:38;14.10;99.90
28177;DHT22;15461;41.652;9.378;2023-05-24T04:08:04;14.00;99.90
28177;DHT22;15461;41.652;9.378;2023-05-24T04:10:29;14.00;99.90
28177;DHT22;15461;41.652;9.378;2023-05-24T04:12:55;14.10;99.90
28177;DHT22;15461;41.652;9.378;2023-05-24T04:15:22;14.10;99.90
28177;DHT22;15461;41.652;9.378;2023-05-24T04:17:49;14.10;99.90
28177;DHT22;15461;41.652;9.378;2023-05-24T04:20:21;14.10;99.90
28177;DHT22;15461;41.652;9.378;2023-05-24T04:22:52;14.10;99.90
28177;DHT22;15461;41.652;9.378;2023-05-24T04:25:19;14.10;99.90
28177;DHT22;15461;41.652;9.378;2023-05-24T04:27:45;14.20;99.90
28177;DHT22;15461;41.652;9.378;2023-05-24T04:30:14;14.20;99.90
28177;DHT22;15461;41.652;9.378;2023-05-24T04:32:43;14.20;99.90
28177;DHT22;15461;41.652;9.378;2023-05-24T04:35:10;14.10;99.90
28177;DHT22;15461;41.652;9.378;2023-05-24T04:37:36;14.20;99.90
28177;DHT22;15461;41.652;9.378;2023-05-24T04:40:02;14.20;99.90
28177;DHT22;15461;41.652;9.378;2023-05-24T04:42:29;14.20;99.90
28177;DHT22;15461;41.652;9.378;2023-05-24T04:44:58;14.30;99.90
28177;DHT22;15461;41.652;9.378;2023-05-24T04:47:25;14.30;99.90
28177;DHT22;15461;41.652;9.378;2023-05-24T04:49:50;14.40;99.90
28177;DHT22;15461;41.652;9.378;2023-05-24T04:52:17;14.40;99.90
28177;DHT22;15461;41.652;9.378;2023-05-24T04:54:43;14.50;99.90
28177;DHT22;15461;41.652;9.378;2023-05-24T04:57:09;14.50;99.90
28177;DHT22;15461;41.652;9.378;2023-05-24T04:59:35;14.60;99.90
28177;DHT22;15461;41.652;9.378;2023-05-24T05:02:01;14.70;99.90
28177;DHT22;15461;41.652;9.378;2023-05-24T05:04:27;14.80;99.90
28177;DHT22;15461;41.652;9.378;2023-05-24T05:06:53;14.90;99.90
28177;DHT22;15461;41.652;9.378;2023-05-24T05:09:20;14.90;99.90
28177;DHT22;15461;41.652;9.378;2023-05-24T05:11:47;15.00;99.90
28177;DHT22;15461;41.652;9.378;2023-05-24T05:14:13;15.10;99.90
28177;DHT22;15461;41.652;9.378;2023-05-24T05:16:39;15.30;99.90
28177;DHT22;15461;41.652;9.378;2023-05-24T05:19:05;15.40;99.90
28177;DHT22;15461;41.652;9.378;2023-05-24T05:21:32;15.50;99.90
28177;DHT22;15461;41.652;9.378;2023-05-24T05:23:59;15.60;99.90
28177;DHT22;15461;41.652;9.378;2023-05-24T05:26:28;15.70;99.90
28177;DHT22;15461;41.652;9.378;2023-05-24T05:28:55;15.80;99.90
28177;DHT22;15461;41.652;9.378;2023-05-24T05:31:22;15.90;99.90
28177;DHT22;15461;41.652;9.378;2023-05-24T05:33:48;16.00;99.90
28177;DHT22;15461;41.652;9.378;2023-05-24T05:36:14;16.20;99.90
28177;DHT22;15461;41.652;9.378;2023-05-24T05:38:40;16.30;99.90
28177;DHT22;15461;41.652;9.378;2023-05-24T05:41:06;16.50;99.90
28177;DHT22;15461;41.652;9.378;2023-05-24T05:43:32;16.70;99.90
28177;DHT22;15461;41.652;9.378;2023-05-24T05:45:58;16.90;99.90
28177;DHT22;15461;41.652;9.378;2023-05-24T05:48:25;17.00;99.90
28177;DHT22;15461;41.652;9.378;2023-05-24T05:50:51;17.20;99.90
28177;DHT22;15461;41.652;9.378;2023-05-24T05:53:17;17.30;99.90
28177;DHT22;15461;41.652;9.378;2023-05-24T05:55:43;17.40;99.90
28177;DHT22;15461;41.652;9.378;2023-05-24T05:58:09;17.50;99.90
28177;DHT22;15461;41.652;9.378;2023-05-24T06:00:37;17.60;99.90
28177;DHT22;15461;41.652;9.378;2023-05-24T06:03:03;17.70;99.90
28177;DHT22;15461;41.652;9.378;2023-05-24T06:05:29;17.80;99.90
28177;DHT22;15461;41.652;9.378;2023-05-24T06:07:54;17.90;99.90
28177;DHT22;15461;41.652;9.378;2023-05-24T06:10:20;18.00;99.90
28177;DHT22;15461;41.652;9.378;2023-05-24T06:12:46;18.10;99.90
28177;DHT22;15461;41.652;9.378;2023-05-24T06:15:12;18.20;99.90
28177;DHT22;15461;41.652;9.378;2023-05-24T06:17:38;18.40;99.90
28177;DHT22;15461;41.652;9.378;2023-05-24T06:20:06;18.60;99.90
28177;DHT22;15461;41.652;9.378;2023-05-24T06:22:40;18.80;99.90
28177;DHT22;15461;41.652;9.378;2023-05-24T06:25:07;18.90;99.90
28177;DHT22;15461;41.652;9.378;2023-05-24T06:27:33;19.10;99.90
28177;DHT22;15461;41.652;9.378;2023-05-24T06:29:59;19.30;99.90
28177;DHT22;15461;41.652;9.378;2023-05-24T06:32:25;19.50;99.90
28177;DHT22;15461;41.652;9.378;2023-05-24T06:34:51;19.50;99.90
28177;DHT22;15461;41.652;9.378;2023-05-24T06:37:17;19.60;99.90
28177;DHT22;15461;41.652;9.378;2023-05-24T06:39:42;19.70;99.90
28177;DHT22;15461;41.652;9.378;2023-05-24T06:42:08;19.90;99.90
28177;DHT22;15461;41.652;9.378;2023-05-24T06:44:37;20.00;99.90
28177;DHT22;15461;41.652;9.378;2023-05-24T06:47:03;20.20;99.90
28177;DHT22;15461;41.652;9.378;2023-05-24T06:49:30;20.30;99.90
28177;DHT22;15461;41.652;9.378;2023-05-24T06:51:56;20.40;99.90
28177;DHT22;15461;41.652;9.378;2023-05-24T06:54:22;20.40;99.90
28177;DHT22;15461;41.652;9.378;2023-05-24T06:56:47;20.60;99.90
28177;DHT22;15461;41.652;9.378;2023-05-24T06:59:13;20.70;99.90
28177;DHT22;15461;41.652;9.378;2023-05-24T07:01:39;20.80;99.90
28177;DHT22;15461;41.652;9.378;2023-05-24T07:04:08;20.90;99.90
28177;DHT22;15461;41.652;9.378;2023-05-24T07:06:35;20.90;99.90
28177;DHT22;15461;41.652;9.378;2023-05-24T07:09:02;21.00;99.90
28177;DHT22;15461;41.652;9.378;2023-05-24T07:11:29;21.00;99.90
28177;DHT22;15461;41.652;9.378;2023-05-24T07:13:56;21.10;99.90
28177;DHT22;15461;41.652;9.378;2023-05-24T07:16:22;20.90;99.90
28177;DHT22;15461;41.652;9.378;2023-05-24T07:18:48;20.80;99.90
28177;DHT22;15461;41.652;9.378;2023-05-24T07:21:14;20.90;99.90
28177;DHT22;15461;41.652;9.378;2023-05-24T07:23:40;21.00;99.90
28177;DHT22;15461;41.652;9.378;2023-05-24T07:26:06;21.10;99.90
28177;DHT22;15461;41.652;9.378;2023-05-24T07:28:33;21.20;99.90
28177;DHT22;15461;41.652;9.378;2023-05-24T07:31:03;21.30;99.90
28177;DHT22;15461;41.652;9.378;2023-05-24T07:33:29;21.40;99.90
28177;DHT22;15461;41.652;9.378;2023-05-24T07:35:55;21.40;99.90
28177;DHT22;15461;41.652;9.378;2023-05-24T07:38:20;21.50;99.90
28177;DHT22;15461;41.652;9.378;2023-05-24T07:40:47;21.60;99.90
28177;DHT22;15461;41.652;9.378;2023-05-24T07:43:13;21.60;99.90
28177;DHT22;15461;41.652;9.378;2023-05-24T07:45:39;21.60;99.90
28177;DHT22;15461;41.652;9.378;2023-05-24T07:48:05;21.60;99.90
28177;DHT22;15461;41.652;9.378;2023-05-24T07:50:31;21.60;99.90
28177;DHT22;15461;41.652;9.378;2023-05-24T07:52:57;21.70;99.90
28177;DHT22;15461;41.652;9.378;2023-05-24T07:55:24;21.70;99.90
28177;DHT22;15461;41.652;9.378;2023-05-24T07:57:50;21.70;99.90
28177;DHT22;15461;41.652;9.378;2023-05-24T08:00:16;21.60;99.90
28177;DHT22;15461;41.652;9.378;2023-05-24T08:02:43;21.70;99.90
28177;DHT22;15461;41.652;9.378;2023-05-24T08:05:14;21.80;99.90
28177;DHT22;15461;41.652;9.378;2023-05-24T08:07:41;22.00;99.90
28177;DHT22;15461;41.652;9.378;2023-05-24T08:10:08;22.20;99.90
28177;DHT22;15461;41.652;9.378;2023-05-24T08:12:35;22.30;99.90
28177;DHT22;15461;41.652;9.378;2023-05-24T08:15:01;22.40;99.90
28177;DHT22;15461;41.652;9.378;2023-05-24T08:17:27;22.50;99.90
28177;DHT22;15461;41.652;9.378;2023-05-24T08:19:52;22.50;99.90
28177;DHT22;15461;41.652;9.378;2023-05-24T08:22:18;22.50;99.90
28177;DHT22;15461;41.652;9.378;2023-05-24T08:24:44;22.60;99.90
28177;DHT22;15461;41.652;9.378;2023-05-24T08:27:12;22.60;99.90
28177;DHT22;15461;41.652;9.378;2023-05-24T08:29:39;22.60;99.90
28177;DHT22;15461;41.652;9.378;2023-05-24T08:32:05;22.60;99.90
28177;DHT22;15461;41.652;9.378;2023-05-24T08:34:35;22.70;99.90
28177;DHT22;15461;41.652;9.378;2023-05-24T08:37:05;22.90;99.90
28177;DHT22;15461;41.652;9.378;2023-05-24T08:39:31;23.00;99.90
28177;DHT22;15461;41.652;9.378;2023-05-24T08:41:58;23.20;99.90
28177;DHT22;15461;41.652;9.378;2023-05-24T08:44:27;23.20;99.90
28177;DHT22;15461;41.652;9.378;2023-05-24T08:46:56;23.20;99.90
28177;DHT22;15461;41.652;9.378;2023-05-24T08:49:23;23.30;99.90
28177;DHT22;15461;41.652;9.378;2023-05-24T08:51:51;23.40;99.90
28177;DHT22;15461;41.652;9.378;2023-05-24T08:54:18;23.50;99.90
28177;DHT22;15461;41.652;9.378;2023-05-24T08:56:44;23.50;99.90
28177;DHT22;15461;41.652;9.378;2023-05-24T08:59:10;23.50;99.90
28177;DHT22;15461;41.652;9.378;2023-05-24T09:01:39;23.60;99.90
28177;DHT22;15461;41.652;9.378;2023-05-24T09:04:06;23.50;99.90
28177;DHT22;15461;41.652;9.378;2023-05-24T09:06:33;23.50;99.90
28177;DHT22;15461;41.652;9.378;2023-05-24T09:09:01;23.50;99.90
28177;DHT22;15461;41.652;9.378;2023-05-24T09:11:28;23.40;99.90
28177;DHT22;15461;41.652;9.378;2023-05-24T09:13:56;23.30;99.90
28177;DHT22;15461;41.652;9.378;2023-05-24T09:16:22;23.30;99.90
28177;DHT22;15461;41.652;9.378;2023-05-24T09:18:49;23.20;99.90
28177;DHT22;15461;41.652;9.378;2023-05-24T09:21:14;23.20;99.90
28177;DHT22;15461;41.652;9.378;2023-05-24T09:23:41;23.10;99.90
28177;DHT22;15461;41.652;9.378;2023-05-24T09:26:07;23.20;99.90
28177;DHT22;15461;41.652;9.378;2023-05-24T09:28:34;23.30;99.90
28177;DHT22;15461;41.652;9.378;2023-05-24T09:31:01;23.30;99.90
28177;DHT22;15461;41.652;9.378;2023-05-24T09:33:29;23.50;99.90
28177;DHT22;15461;41.652;9.378;2023-05-24T09:36:00;23.60;99.90
28177;DHT22;15461;41.652;9.378;2023-05-24T09:38:26;23.70;99.90
28177;DHT22;15461;41.652;9.378;2023-05-24T09:41:01;23.70;99.90
28177;DHT22;15461;41.652;9.378;2023-05-24T09:43:27;23.80;99.90
28177;DHT22;15461;41.652;9.378;2023-05-24T09:45:55;23.80;99.90
28177;DHT22;15461;41.652;9.378;2023-05-24T09:48:23;23.80;99.90
28177;DHT22;15461;41.652;9.378;2023-05-24T09:51:18;23.80;99.90
28177;DHT22;15461;41.652;9.378;2023-05-24T09:53:46;23.70;99.90
28177;DHT22;15461;41.652;9.378;2023-05-24T09:56:12;23.80;99.90
28177;DHT22;15461;41.652;9.378;2023-05-24T09:58:39;23.80;99.90
28177;DHT22;15461;41.652;9.378;2023-05-24T10:01:08;23.80;99.90
28177;DHT22;15461;41.652;9.378;2023-05-24T10:03:35;23.70;99.90
28177;DHT22;15461;41.652;9.378;2023-05-24T10:06:05;23.70;99.90
28177;DHT22;15461;41.652;9.378;2023-05-24T10:08:34;23.70;99.90
28177;DHT22;15461;41.652;9.378;2023-05-24T10:11:04;23.60;99.90
28177;DHT22;15461;41.652;9.378;2023-05-24T10:13:34;23.70;99.90
28177;DHT22;15461;41.652;9.378;2023-05-24T10:16:02;23.60;99.90
28177;DHT22;15461;41.652;9.378;2023-05-24T10:18:28;23.70;99.90
28177;DHT22;15461;41.652;9.378;2023-05-24T10:20:55;23.70;99.90
28177;DHT22;15461;41.652;9.378;2023-05-24T10:23:25;23.60;99.90
28177;DHT22;15461;41.652;9.378;2023-05-24T10:26:01;23.50;99.90
28177;DHT22;15461;41.652;9.378;2023-05-24T10:28:29;23.50;99.90
28177;DHT22;15461;41.652;9.378;2023-05-24T10:33:37;23.70;99.90
28177;DHT22;15461;41.652;9.378;2023-05-24T10:36:06;23.60;99.90
28177;DHT22;15461;41.652;9.378;2023-05-24T10:38:33;23.70;99.90
28177;DHT22;15461;41.652;9.378;2023-05-24T10:40:59;23.80;99.90
28177;DHT22;15461;41.652;9.378;2023-05-24T10:43:26;23.70;99.90
28177;DHT22;15461;41.652;9.378;2023-05-24T10:45:52;23.70;99.90
28177;DHT22;15461;41.652;9.378;2023-05-24T10:50:53;23.70;99.90
28177;DHT22;15461;41.652;9.378;2023-05-24T10:53:22;23.70;99.90
28177;DHT22;15461;41.652;9.378;2023-05-24T10:55:55;23.80;99.90
28177;DHT22;15461;41.652;9.378;2023-05-24T11:01:26;23.60;99.90
28177;DHT22;15461;41.652;9.378;2023-05-24T11:04:03;23.60;99.90
28177;DHT22;15461;41.652;9.378;2023-05-24T11:09:16;23.40;99.90
28177;DHT22;15461;41.652;9.378;2023-05-24T11:11:46;23.30;99.90
28177;DHT22;15461;41.652;9.378;2023-05-24T11:14:16;23.30;99.90
28177;DHT22;15461;41.652;9.378;2023-05-24T11:16:44;23.20;99.90
28177;DHT22;15461;41.652;9.378;2023-05-24T11:19:19;23.30;99.90
28177;DHT22;15461;41.652;9.378;2023-05-24T11:21:47;23.30;99.90
28177;DHT22;15461;41.652;9.378;2023-05-24T11:24:17;23.40;99.90
28177;DHT22;15461;41.652;9.378;2023-05-24T11:26:43;23.50;99.90
28177;DHT22;15461;41.652;9.378;2023-05-24T11:29:12;23.60;99.90
28177;DHT22;15461;41.652;9.378;2023-05-24T11:31:53;23.60;99.90
28177;DHT22;15461;41.652;9.378;2023-05-24T11:34:20;23.50;99.90
28177;DHT22;15461;41.652;9.378;2023-05-24T11:36:47;23.50;99.90
28177;DHT22;15461;41.652;9.378;2023-05-24T11:39:13;23.40;99.90
28177;DHT22;15461;41.652;9.378;2023-05-24T11:41:40;23.30;99.90
28177;DHT22;15461;41.652;9.378;2023-05-24T11:44:09;23.20;99.90
28177;DHT22;15461;41.652;9.378;2023-05-24T11:46:35;23.20;99.90
28177;DHT22;15461;41.652;9.378;2023-05-24T11:49:03;23.20;99.90
28177;DHT22;15461;41.652;9.378;2023-05-24T11:51:31;23.20;99.90
28177;DHT22;15461;41.652;9.378;2023-05-24T11:53:58;23.10;99.90
28177;DHT22;15461;41.652;9.378;2023-05-24T11:56:30;23.20;99.90
28177;DHT22;15461;41.652;9.378;2023-05-24T11:59:16;23.20;99.90
28177;DHT22;15461;41.652;9.378;2023-05-24T12:01:43;23.30;99.90
28177;DHT22;15461;41.652;9.378;2023-05-24T12:04:09;23.20;99.90
28177;DHT22;15461;41.652;9.378;2023-05-24T12:06:41;23.10;99.90
28177;DHT22;15461;41.652;9.378;2023-05-24T12:09:08;23.10;99.90
28177;DHT22;15461;41.652;9.378;2023-05-24T12:11:47;23.10;99.90
28177;DHT22;15461;41.652;9.378;2023-05-24T12:14:16;23.20;99.90
28177;DHT22;15461;41.652;9.378;2023-05-24T12:16:43;23.10;99.90
28177;DHT22;15461;41.652;9.378;2023-05-24T12:19:19;23.10;99.90
28177;DHT22;15461;41.652;9.378;2023-05-24T12:21:46;23.10;99.90
28177;DHT22;15461;41.652;9.378;2023-05-24T12:24:15;23.00;99.90
28177;DHT22;15461;41.652;9.378;2023-05-24T12:26:42;23.10;99.90
28177;DHT22;15461;41.652;9.378;2023-05-24T12:29:10;23.10;99.90
28177;DHT22;15461;41.652;9.378;2023-05-24T12:31:39;23.10;99.90
28177;DHT22;15461;41.652;9.378;2023-05-24T12:34:06;23.20;99.90
28177;DHT22;15461;41.652;9.378;2023-05-24T12:36:33;23.30;99.90
28177;DHT22;15461;41.652;9.378;2023-05-24T12:39:15;23.30;99.90
28177;DHT22;15461;41.652;9.378;2023-05-24T12:41:42;23.10;99.90
28177;DHT22;15461;41.652;9.378;2023-05-24T12:44:09;23.30;99.90
28177;DHT22;15461;41.652;9.378;2023-05-24T12:46:36;23.50;99.90
28177;DHT22;15461;41.652;9.378;2023-05-24T12:49:01;23.80;99.90
28177;DHT22;15461;41.652;9.378;2023-05-24T12:51:30;23.90;99.90
28177;DHT22;15461;41.652;9.378;2023-05-24T12:53:56;24.10;99.90
28177;DHT22;15461;41.652;9.378;2023-05-24T12:56:21;24.20;99.90
28177;DHT22;15461;41.652;9.378;2023-05-24T12:58:51;24.30;99.90
28177;DHT22;15461;41.652;9.378;2023-05-24T13:01:17;24.40;99.90
28177;DHT22;15461;41.652;9.378;2023-05-24T13:03:43;24.40;99.90
28177;DHT22;15461;41.652;9.378;2023-05-24T13:06:09;24.50;99.90
28177;DHT22;15461;41.652;9.378;2023-05-24T13:08:35;24.70;99.90
28177;DHT22;15461;41.652;9.378;2023-05-24T13:11:01;24.70;99.90
28177;DHT22;15461;41.652;9.378;2023-05-24T13:13:27;24.70;99.90
28177;DHT22;15461;41.652;9.378;2023-05-24T13:15:53;24.80;99.90
28177;DHT22;15461;41.652;9.378;2023-05-24T13:18:19;24.80;99.90
28177;DHT22;15461;41.652;9.378;2023-05-24T13:20:45;24.90;99.90
28177;DHT22;15461;41.652;9.378;2023-05-24T13:23:11;25.00;99.90
28177;DHT22;15461;41.652;9.378;2023-05-24T13:25:37;25.00;99.90
28177;DHT22;15461;41.652;9.378;2023-05-24T13:28:03;25.20;99.90
28177;DHT22;15461;41.652;9.378;2023-05-24T13:30:29;25.20;99.90
28177;DHT22;15461;41.652;9.378;2023-05-24T13:32:55;25.20;99.90
28177;DHT22;15461;41.652;9.378;2023-05-24T13:35:23;25.20;99.90
28177;DHT22;15461;41.652;9.378;2023-05-24T13:37:49;25.20;99.90
28177;DHT22;15461;41.652;9.378;2023-05-24T13:40:16;25.20;99.90
28177;DHT22;15461;41.652;9.378;2023-05-24T13:42:42;25.20;99.90
28177;DHT22;15461;41.652;9.378;2023-05-24T13:45:09;25.20;99.90
28177;DHT22;15461;41.652;9.378;2023-05-24T13:47:35;25.20;99.90
28177;DHT22;15461;41.652;9.378;2023-05-24T13:50:00;25.20;99.90
28177;DHT22;15461;41.652;9.378;2023-05-24T13:52:26;25.20;99.90
28177;DHT22;15461;41.652;9.378;2023-05-24T13:54:52;25.20;99.90
28177;DHT22;15461;41.652;9.378;2023-05-24T13:57:18;25.20;99.90
28177;DHT22;15461;41.652;9.378;2023-05-24T13:59:44;25.20;99.90
28177;DHT22;15461;41.652;9.378;2023-05-24T14:02:10;25.20;99.90
28177;DHT22;15461;41.652;9.378;2023-05-24T14:04:36;25.30;99.90
28177;DHT22;15461;41.652;9.378;2023-05-24T14:07:02;25.20;99.90
28177;DHT22;15461;41.652;9.378;2023-05-24T14:09:28;25.30;99.90
28177;DHT22;15461;41.652;9.378;2023-05-24T14:11:54;25.20;99.90
28177;DHT22;15461;41.652;9.378;2023-05-24T14:14:20;25.30;99.90
28177;DHT22;15461;41.652;9.378;2023-05-24T14:16:46;25.30;99.90
28177;DHT22;15461;41.652;9.378;2023-05-24T14:19:16;25.20;99.90
28177;DHT22;15461;41.652;9.378;2023-05-24T14:21:42;25.20;99.90
28177;DHT22;15461;41.652;9.378;2023-05-24T14:24:08;25.10;99.90
28177;DHT22;15461;41.652;9.378;2023-05-24T14:26:34;25.00;99.90
28177;DHT22;15461;41.652;9.378;2023-05-24T14:29:00;25.10;99.90
28177;DHT22;15461;41.652;9.378;2023-05-24T14:31:26;25.10;99.90
28177;DHT22;15461;41.652;9.378;2023-05-24T14:33:52;25.20;99.90
28177;DHT22;15461;41.652;9.378;2023-05-24T14:36:18;25.20;99.90
28177;DHT22;15461;41.652;9.378;2023-05-24T14:38:44;25.20;99.90
28177;DHT22;15461;41.652;9.378;2023-05-24T14:41:10;25.10;99.90
28177;DHT22;15461;41.652;9.378;2023-05-24T14:43:36;25.10;99.90
28177;DHT22;15461;41.652;9.378;2023-05-24T14:46:02;25.00;99.90
28177;DHT22;15461;41.652;9.378;2023-05-24T14:48:28;24.80;99.90
28177;DHT22;15461;41.652;9.378;2023-05-24T14:50:54;24.80;99.90
28177;DHT22;15461;41.652;9.378;2023-05-24T14:53:20;24.90;99.90
28177;DHT22;15461;41.652;9.378;2023-05-24T14:55:46;24.70;99.90
28177;DHT22;15461;41.652;9.378;2023-05-24T14:58:12;24.70;99.90
28177;DHT22;15461;41.652;9.378;2023-05-24T15:00:39;24.60;99.90
28177;DHT22;15461;41.652;9.378;2023-05-24T15:03:05;24.70;99.90
28177;DHT22;15461;41.652;9.378;2023-05-24T15:05:33;24.80;99.90
28177;DHT22;15461;41.652;9.378;2023-05-24T15:07:59;25.00;99.90
28177;DHT22;15461;41.652;9.378;2023-05-24T15:10:25;24.90;99.90
28177;DHT22;15461;41.652;9.378;2023-05-24T15:12:51;24.80;99.90
28177;DHT22;15461;41.652;9.378;2023-05-24T15:15:17;24.60;99.90
28177;DHT22;15461;41.652;9.378;2023-05-24T15:17:43;24.60;99.90
28177;DHT22;15461;41.652;9.378;2023-05-24T15:20:10;24.60;99.90
28177;DHT22;15461;41.652;9.378;2023-05-24T15:22:36;24.50;99.90
28177;DHT22;15461;41.652;9.378;2023-05-24T15:25:01;24.50;99.90
28177;DHT22;15461;41.652;9.378;2023-05-24T15:27:27;24.40;99.90
28177;DHT22;15461;41.652;9.378;2023-05-24T15:29:53;24.40;99.90
28177;DHT22;15461;41.652;9.378;2023-05-24T15:32:26;24.50;99.90
28177;DHT22;15461;41.652;9.378;2023-05-24T15:36:50;24.60;99.90
28177;DHT22;15461;41.652;9.378;2023-05-24T15:39:17;24.50;99.90
28177;DHT22;15461;41.652;9.378;2023-05-24T15:41:43;24.50;99.90
28177;DHT22;15461;41.652;9.378;2023-05-24T15:44:09;24.60;99.90
28177;DHT22;15461;41.652;9.378;2023-05-24T15:46:35;24.60;99.90
28177;DHT22;15461;41.652;9.378;2023-05-24T15:49:02;24.60;99.90
28177;DHT22;15461;41.652;9.378;2023-05-24T15:51:28;24.70;99.90
28177;DHT22;15461;41.652;9.378;2023-05-24T15:53:54;24.60;99.90